Accueil
METAR-TAF:

METAR-TAF

Aéroports :

Aéroport d'In Salah

In Salah, Algérie

latitude: 27-15N, longitude: 002-31E, altitude: 269 m

Observation

Le bulletin a été fait il y a 22 minutes, à 09:00 UTC
Vent 16 kt de est
Température 36°C
Humidité 19%
Pression 1011 hPa
Visibilité 10 km ou plus
pas de nuages en-dessous de 1500 mètres et pas de cumulonimbus.

METAR: DAUI 250900Z 08016KT CAVOK 36/09 Q1011

Heure: 10:22 (09:22 UTC)

Prévision

Le bulletin a été fait il y a 4 heures et 22 minutes, à 05:00 UTC
Prévision valable du 25 à 06 UTC au 26 à 06 UTC
Vent 15 kt de nord-est
Visibilité: 8000 m
Probabilité 40%
du 25 à 10 UTC au 25 à 18 UTC
Vent 15 kt de nord/nord-est avec des rafales jusqu'à 25 kt
Chasse-sable basse,

TAF: DAUI 250500Z 2506/2606 04015KT 8000 NSC PROB40 2510/2518 02015G25KT DRSA

Observations et prévisions météorologiques de plus de 4000 aéroports (messages METAR et TAF).

Les stations disponibles sont représentées par des disques jaunes et rouges sur la carte.

Passer la souris dessus pour voir le nom de la station.

Cliquer dessus pour voir les observations et prévisions météorologiques.

Pour changer de carte: cliquez sur les boutons verts avec une croix noire pour zoomer, sur le bouton vert avec un tiret pour effectuer un zoom arrière, ou sur les flèches vertes pour les cartes adjacentes.


METAR-TAF: